Time;durP1;ratioP1;P1;durP2;ratioP2;P2;SDS_P1;SDS_P2;PMS_P1;PMS_P2;Temp;Humidity;BMP_temperature;BMP_pressure;BME280_temperature;BME280_humidity;BME280_pressure;Samples;Min_cycle;Max_cycle;Signal;HPM_P1;HPM_P2
2022/11/22 00:00:06;;;;;;;33.70;21.07;;;-1.00;91.60;;;;;;5053207;28;20650;-86
2022/11/22 00:02:32;;;;;;;34.37;20.07;;;-1.00;91.60;;;;;;5051798;28;20176;-86
2022/11/22 00:04:58;;;;;;;36.73;22.47;;;-1.00;91.60;;;;;;5051724;28;20715;-86
2022/11/22 00:07:23;;;;;;;32.77;19.73;;;-1.00;91.70;;;;;;5052855;28;20198;-86
2022/11/22 00:09:49;;;;;;;36.23;21.87;;;-1.00;91.70;;;;;;5051659;28;20187;-86
2022/11/22 00:12:14;;;;;;;33.67;20.47;;;-1.00;91.70;;;;;;5051742;28;20169;-86
2022/11/22 00:14:40;;;;;;;38.07;21.47;;;-1.00;91.70;;;;;;5051676;28;20186;-86
2022/11/22 00:17:05;;;;;;;39.57;22.80;;;-1.00;91.70;;;;;;5052076;28;20178;-86
2022/11/22 00:19:31;;;;;;;37.07;21.70;;;-1.00;91.70;;;;;;5051634;28;20187;-86
2022/11/22 00:21:56;;;;;;;41.33;24.07;;;-0.90;91.70;;;;;;5053079;28;20662;-86
2022/11/22 00:24:22;;;;;;;38.30;22.97;;;-1.00;91.70;;;;;;5051647;28;20185;-86
2022/11/22 00:26:47;;;;;;;41.17;23.17;;;-0.90;91.70;;;;;;5051711;28;20218;-86
2022/11/22 00:29:13;;;;;;;37.70;20.50;;;-0.90;91.70;;;;;;5051531;28;20172;-86
2022/11/22 00:31:39;;;;;;;32.97;18.53;;;-0.90;91.60;;;;;;5051942;28;20176;-86
2022/11/22 00:34:04;;;;;;;35.43;20.17;;;-0.90;91.60;;;;;;5051421;28;20188;-86
2022/11/22 00:36:30;;;;;;;35.13;20.57;;;-0.90;91.60;;;;;;5051417;28;20204;-86
2022/11/22 00:38:55;;;;;;;36.67;20.03;;;-0.90;91.60;;;;;;5055374;28;20235;-86
2022/11/22 00:41:21;;;;;;;35.77;20.30;;;-0.90;91.60;;;;;;5056300;28;20237;-87
2022/11/22 00:43:46;;;;;;;32.83;20.53;;;-0.90;91.60;;;;;;5055205;28;20191;-86
2022/11/22 00:46:12;;;;;;;38.00;21.13;;;-0.90;91.70;;;;;;5054896;28;20204;-87
2022/11/22 00:48:37;;;;;;;35.07;21.73;;;-0.90;91.70;;;;;;5056221;28;20271;-86
2022/11/22 00:51:03;;;;;;;36.67;21.73;;;-0.80;91.70;;;;;;5054956;28;20171;-86
2022/11/22 00:53:28;;;;;;;34.77;21.13;;;-0.90;91.70;;;;;;5054962;28;20175;-87
2022/11/22 00:55:54;;;;;;;33.53;19.43;;;-0.90;91.70;;;;;;5054692;28;20203;-86
2022/11/22 00:58:19;;;;;;;31.70;17.97;;;-0.80;91.80;;;;;;5055072;28;20183;-86
2022/11/22 01:00:45;;;;;;;45.37;22.83;;;-0.80;91.80;;;;;;5056282;28;20160;-86
2022/11/22 01:03:12;;;;;;;38.40;22.03;;;-0.80;91.90;;;;;;5054784;28;20214;-86
2022/11/22 01:05:38;;;;;;;37.67;21.43;;;-0.70;91.90;;;;;;5056395;28;20207;-86
2022/11/22 01:08:05;;;;;;;35.73;21.33;;;-0.80;91.90;;;;;;5054960;28;20178;-86
2022/11/22 01:10:30;;;;;;;48.43;24.23;;;-0.70;92.00;;;;;;5055088;28;20177;-86
2022/11/22 01:12:57;;;;;;;34.63;19.47;;;-0.70;91.90;;;;;;5054763;28;20190;-86
2022/11/22 01:15:22;;;;;;;40.07;23.70;;;-0.70;92.00;;;;;;5055492;28;20698;-86
2022/11/22 01:17:48;;;;;;;36.53;21.77;;;-0.60;92.10;;;;;;5056125;28;20179;-86
2022/11/22 01:20:13;;;;;;;37.23;22.77;;;-0.70;92.10;;;;;;5054998;28;20180;-86
2022/11/22 01:22:39;;;;;;;37.60;21.17;;;-0.60;92.10;;;;;;5055992;28;20176;-86
2022/11/22 01:25:05;;;;;;;38.83;23.53;;;-0.60;92.20;;;;;;5056026;28;20219;-86
2022/11/22 01:27:30;;;;;;;45.33;23.57;;;-0.60;92.20;;;;;;5055066;28;20208;-87
2022/11/22 01:29:56;;;;;;;46.33;24.53;;;-0.60;92.20;;;;;;5056847;28;20255;-86
2022/11/22 01:32:22;;;;;;;38.47;20.07;;;-0.50;92.20;;;;;;5055817;28;20176;-88
2022/11/22 01:34:47;;;;;;;41.33;22.33;;;-0.50;92.20;;;;;;5055815;28;20211;-88
2022/11/22 01:37:14;;;;;;;37.97;23.80;;;-0.50;92.20;;;;;;5056077;28;20176;-88
2022/11/22 01:39:39;;;;;;;38.70;24.23;;;-0.50;92.20;;;;;;5054873;28;20173;-88
2022/11/22 01:42:05;;;;;;;43.23;23.87;;;-0.50;92.20;;;;;;5055497;28;20670;-88
2022/11/22 01:44:31;;;;;;;39.30;25.00;;;-0.50;92.20;;;;;;5054896;28;20222;-88
2022/11/22 01:47:11;;;;;;;47.63;24.63;;;-0.50;92.20;;;;;;5056749;28;20196;-88
2022/11/22 01:50:00;;;;;;;41.53;23.40;;;-0.50;92.20;;;;;;5053520;28;20200;-87
2022/11/22 01:52:31;;;;;;;37.90;23.00;;;-0.50;92.20;;;;;;5054249;28;20584;-87
2022/11/22 01:55:03;;;;;;;44.60;26.20;;;-0.50;92.20;;;;;;5054009;28;20285;-87
2022/11/22 01:57:32;;;;;;;40.87;22.70;;;-0.50;92.20;;;;;;5054216;28;20176;-87
2022/11/22 02:00:08;;;;;;;40.30;24.47;;;-0.50;92.20;;;;;;5054633;28;20595;-87
2022/11/22 02:02:34;;;;;;;43.67;25.20;;;-0.50;92.20;;;;;;5055135;28;20176;-87
2022/11/22 02:05:04;;;;;;;40.97;24.97;;;-0.40;92.30;;;;;;5053865;28;20228;-87
2022/11/22 02:07:53;;;;;;;42.50;26.07;;;-0.40;92.20;;;;;;5053594;28;20556;-87
2022/11/22 02:10:23;;;;;;;42.63;25.57;;;-0.40;92.20;;;;;;5053828;28;20160;-87
2022/11/22 02:12:50;;;;;;;46.00;25.43;;;-0.40;92.20;;;;;;5053797;28;20549;-87
2022/11/22 02:15:16;;;;;;;44.37;23.47;;;-0.40;92.20;;;;;;5053990;28;20200;-87
2022/11/22 02:17:41;;;;;;;43.53;23.83;;;-0.40;92.20;;;;;;5053482;28;20176;-87
2022/11/22 02:20:07;;;;;;;44.30;24.33;;;-0.40;92.20;;;;;;5054645;28;20247;-87
2022/11/22 02:22:39;;;;;;;49.07;25.77;;;-0.40;92.20;;;;;;5054334;28;20179;-87
2022/11/22 02:25:29;;;;;;;41.40;24.83;;;-0.40;92.20;;;;;;5054660;28;20184;-87
2022/11/22 02:27:55;;;;;;;47.10;24.20;;;-0.40;92.20;;;;;;5053501;28;20195;-87
2022/11/22 02:30:20;;;;;;;43.50;23.20;;;-0.40;92.20;;;;;;5053533;28;20168;-87
2022/11/22 02:32:46;;;;;;;45.13;23.60;;;-0.40;92.20;;;;;;5053413;28;20181;-87
2022/11/22 02:35:17;;;;;;;40.77;24.13;;;-0.40;92.20;;;;;;5053067;28;20687;-87
2022/11/22 02:37:43;;;;;;;41.07;23.47;;;-0.30;92.20;;;;;;5054542;28;20167;-87
2022/11/22 02:40:14;;;;;;;46.57;27.00;;;-0.40;92.20;;;;;;5053105;28;20172;-87
2022/11/22 02:42:47;;;;;;;42.80;22.17;;;-0.40;92.20;;;;;;5054462;28;20165;-87
2022/11/22 02:45:12;;;;;;;40.17;21.27;;;-0.40;92.10;;;;;;5053191;28;20201;-87
2022/11/22 02:47:38;;;;;;;42.57;25.20;;;-0.40;92.10;;;;;;5054399;28;20657;-87
2022/11/22 02:50:04;;;;;;;45.53;22.07;;;-0.40;92.10;;;;;;5053634;28;20274;-87
2022/11/22 02:52:29;;;;;;;43.87;24.13;;;-0.30;92.10;;;;;;5052989;28;20186;-87
2022/11/22 02:54:55;;;;;;;31.83;18.50;;;-0.30;92.10;;;;;;5053363;28;20196;-87
2022/11/22 02:57:20;;;;;;;40.10;24.13;;;-0.30;92.10;;;;;;5054371;28;20175;-87
2022/11/22 02:59:46;;;;;;;44.30;26.70;;;-0.30;92.10;;;;;;5052746;28;20175;-87
2022/11/22 03:02:11;;;;;;;42.10;24.07;;;-0.30;92.10;;;;;;5052664;28;20180;-87
2022/11/22 03:04:37;;;;;;;47.10;25.97;;;-0.30;92.10;;;;;;5052596;28;20176;-88
2022/11/22 03:07:03;;;;;;;42.07;22.83;;;-0.30;92.10;;;;;;5052786;28;20710;-88
2022/11/22 03:09:29;;;;;;;39.30;23.40;;;-0.30;92.10;;;;;;5052802;28;20177;-87
2022/11/22 03:11:54;;;;;;;49.33;28.00;;;-0.30;92.10;;;;;;5053586;28;20648;-87
2022/11/22 03:14:20;;;;;;;49.40;28.40;;;-0.20;92.10;;;;;;5053871;28;20619;-87
2022/11/22 03:16:47;;;;;;;52.83;26.87;;;-0.20;92.10;;;;;;5052968;28;20197;-87
2022/11/22 03:19:13;;;;;;;47.97;27.23;;;-0.20;92.00;;;;;;5054023;28;20171;-87
2022/11/22 03:21:40;;;;;;;43.13;23.30;;;-0.20;92.00;;;;;;5052794;28;20626;-87
2022/11/22 03:24:06;;;;;;;45.57;24.97;;;-0.20;92.00;;;;;;5052654;28;20603;-87
2022/11/22 03:26:32;;;;;;;43.83;24.13;;;-0.20;92.00;;;;;;5052727;28;20204;-87
2022/11/22 03:28:58;;;;;;;36.40;21.63;;;-0.20;92.00;;;;;;5053862;28;20228;-87
2022/11/22 03:31:23;;;;;;;45.00;25.83;;;-0.20;92.00;;;;;;5052337;28;20233;-87
2022/11/22 03:33:49;;;;;;;49.63;27.37;;;-0.20;92.00;;;;;;5052269;28;20330;-87
2022/11/22 03:36:15;;;;;;;47.60;27.13;;;-0.20;92.00;;;;;;5052465;28;20781;-87
2022/11/22 03:38:40;;;;;;;45.07;23.90;;;-0.20;92.00;;;;;;5052447;28;20604;-87
2022/11/22 03:41:06;;;;;;;44.47;24.67;;;-0.20;91.90;;;;;;5052914;28;20183;-87
2022/11/22 03:43:31;;;;;;;39.90;23.83;;;-0.20;92.00;;;;;;5052149;28;20531;-86
2022/11/22 03:45:57;;;;;;;42.10;26.03;;;-0.20;91.90;;;;;;5051987;28;20296;-87
2022/11/22 03:48:22;;;;;;;44.60;24.67;;;-0.20;91.90;;;;;;5051999;28;20712;-87
2022/11/22 03:50:48;;;;;;;41.50;25.50;;;-0.20;91.90;;;;;;5053139;28;20186;-87
2022/11/22 03:53:13;;;;;;;43.23;25.40;;;-0.10;91.90;;;;;;5052346;28;20175;-87
2022/11/22 03:55:39;;;;;;;47.27;27.90;;;-0.10;91.90;;;;;;5052198;28;20298;-87
2022/11/22 03:58:05;;;;;;;45.17;23.57;;;-0.10;91.90;;;;;;5051996;28;20175;-87
2022/11/22 04:00:31;;;;;;;36.83;21.93;;;-0.10;91.80;;;;;;5051898;28;20177;-87
2022/11/22 04:02:56;;;;;;;40.67;24.80;;;-0.10;91.80;;;;;;5052100;28;20189;-87
2022/11/22 04:05:22;;;;;;;41.50;24.47;;;-0.10;91.80;;;;;;5053011;28;20188;-87
2022/11/22 04:07:47;;;;;;;47.00;25.33;;;-0.10;91.90;;;;;;5052115;28;20177;-87
2022/11/22 04:10:13;;;;;;;45.23;26.20;;;-0.10;91.80;;;;;;5051816;28;20642;-87
2022/11/22 04:12:39;;;;;;;40.90;23.50;;;-0.10;91.90;;;;;;5052772;28;20176;-87
2022/11/22 04:15:07;;;;;;;46.77;24.07;;;-0.10;91.80;;;;;;5055748;28;20249;-87
2022/11/22 04:17:39;;;;;;;41.40;25.53;;;-0.10;91.80;;;;;;5056970;28;20176;-86
2022/11/22 04:23:03;;;;;;;44.17;23.67;;;0.00;91.80;;;;;;5057051;28;20167;-87
2022/11/22 04:25:31;;;;;;;41.90;25.03;;;-0.10;91.80;;;;;;5055558;28;20584;-87
2022/11/22 04:27:57;;;;;;;35.77;22.00;;;-0.10;91.80;;;;;;5055718;28;20176;-87
2022/11/22 04:32:44;;;;;;;39.43;21.60;;;0.00;91.80;;;;;;5056741;28;20177;-87
2022/11/22 04:33:09;;;;;;;39.57;23.57;;;0.00;91.80;;;;;;5056656;28;20591;-88
2022/11/22 04:35:35;;;;;;;47.73;26.67;;;0.00;91.80;;;;;;5055331;28;20215;-86
2022/11/22 04:38:01;;;;;;;40.77;24.70;;;0.00;91.80;;;;;;5055268;28;20660;-87
2022/11/22 04:40:27;;;;;;;42.77;24.03;;;0.00;91.80;;;;;;5055251;28;20181;-87
2022/11/22 04:45:36;;;;;;;40.27;24.53;;;0.00;91.80;;;;;;5056604;28;20198;-87
2022/11/22 04:48:02;;;;;;;40.67;24.07;;;0.00;91.90;;;;;;5055274;28;20643;-87
2022/11/22 04:53:15;;;;;;;40.00;23.43;;;0.00;91.90;;;;;;5056570;28;20249;-86
2022/11/22 04:55:42;;;;;;;39.87;23.23;;;0.00;91.90;;;;;;5055257;28;20209;-87
2022/11/22 04:58:08;;;;;;;35.23;20.80;;;0.00;92.00;;;;;;5055147;28;20237;-87
2022/11/22 05:00:34;;;;;;;42.40;26.33;;;0.00;92.00;;;;;;5054828;28;20181;-87
2022/11/22 05:03:00;;;;;;;43.17;25.20;;;0.00;92.00;;;;;;5056095;28;20598;-87
2022/11/22 05:05:26;;;;;;;42.70;24.27;;;0.00;92.00;;;;;;5056046;28;20200;-87
2022/11/22 05:07:51;;;;;;;38.23;22.97;;;0.00;92.10;;;;;;5056082;28;20191;-87
2022/11/22 05:10:17;;;;;;;45.37;28.43;;;0.00;92.10;;;;;;5054663;28;20635;-86
2022/11/22 05:12:42;;;;;;;44.83;25.57;;;0.00;92.10;;;;;;5055882;28;20172;-87
2022/11/22 05:15:10;;;;;;;41.27;24.70;;;0.00;92.20;;;;;;5055309;28;20189;-87
2022/11/22 05:17:37;;;;;;;43.10;26.30;;;0.00;92.20;;;;;;5054672;28;20286;-87
2022/11/22 05:20:03;;;;;;;43.67;26.27;;;0.10;92.20;;;;;;5054640;28;20178;-87
2022/11/22 05:25:13;;;;;;;45.60;26.47;;;0.10;92.30;;;;;;5054909;28;20207;-88
2022/11/22 05:27:38;;;;;;;48.03;27.33;;;0.10;92.30;;;;;;5054346;28;20206;-87
2022/11/22 05:30:05;;;;;;;45.67;25.20;;;0.10;92.30;;;;;;5055715;28;20180;-87
2022/11/22 05:32:31;;;;;;;43.67;23.00;;;0.10;92.40;;;;;;5054694;28;20702;-87
2022/11/22 05:34:57;;;;;;;40.50;25.87;;;0.20;92.40;;;;;;5054532;28;20214;-87
2022/11/22 05:37:23;;;;;;;48.77;25.80;;;0.20;92.50;;;;;;5056216;28;20178;-87
2022/11/22 05:39:49;;;;;;;41.63;25.93;;;0.20;92.60;;;;;;5054493;28;20218;-87
2022/11/22 05:42:14;;;;;;;42.83;25.17;;;0.20;92.60;;;;;;5054275;28;20228;-88
2022/11/22 05:44:40;;;;;;;37.50;22.97;;;0.30;92.70;;;;;;5054251;28;20189;-87
2022/11/22 05:47:05;;;;;;;41.07;24.27;;;0.20;92.70;;;;;;5054932;28;20569;-87
2022/11/22 05:49:31;;;;;;;41.40;24.23;;;0.30;92.80;;;;;;5055315;28;20185;-87
2022/11/22 05:51:57;;;;;;;40.63;24.93;;;0.30;92.90;;;;;;5055434;28;20267;-87
2022/11/22 05:54:23;;;;;;;40.43;24.63;;;0.30;92.90;;;;;;5054624;28;20207;-87
2022/11/22 05:56:48;;;;;;;46.30;27.10;;;0.30;92.90;;;;;;5054233;28;20186;-87
2022/11/22 05:59:14;;;;;;;44.40;26.47;;;0.30;93.00;;;;;;5054345;28;20187;-87
2022/11/22 06:01:39;;;;;;;41.33;24.47;;;0.30;93.00;;;;;;5054125;28;20185;-88
2022/11/22 06:04:05;;;;;;;46.60;27.90;;;0.30;93.00;;;;;;5054466;28;20272;-88
2022/11/22 06:06:31;;;;;;;46.17;28.27;;;0.30;93.00;;;;;;5055392;28;20210;-88
2022/11/22 06:08:57;;;;;;;47.33;27.20;;;0.30;93.10;;;;;;5055613;28;20663;-87
2022/11/22 06:11:25;;;;;;;38.77;25.20;;;0.30;93.10;;;;;;5054572;28;20224;-88
2022/11/22 06:13:56;;;;;;;40.77;24.10;;;0.30;93.10;;;;;;5054476;28;20169;-88
2022/11/22 06:16:23;;;;;;;45.73;26.00;;;0.40;93.10;;;;;;5054805;28;20219;-88
2022/11/22 06:18:49;;;;;;;44.33;26.67;;;0.40;93.20;;;;;;5054391;28;20188;-88
2022/11/22 06:21:17;;;;;;;45.07;26.43;;;0.30;93.10;;;;;;5054489;28;20185;-88
2022/11/22 06:23:43;;;;;;;45.37;24.97;;;0.30;93.20;;;;;;5054892;28;20182;-88
2022/11/22 06:26:11;;;;;;;51.23;28.07;;;0.40;93.20;;;;;;5055380;28;20225;-88
2022/11/22 06:28:38;;;;;;;45.27;25.93;;;0.40;93.20;;;;;;5055556;28;20184;-88
2022/11/22 06:31:06;;;;;;;46.83;27.93;;;0.40;93.20;;;;;;5055534;28;20171;-88
2022/11/22 06:33:31;;;;;;;39.53;24.10;;;0.40;93.30;;;;;;5055335;28;20540;-88
2022/11/22 06:36:05;;;;;;;50.67;27.20;;;0.40;93.30;;;;;;5054866;28;20231;-88
2022/11/22 06:38:31;;;;;;;44.27;26.23;;;0.40;93.30;;;;;;5054268;28;20680;-88
2022/11/22 06:41:01;;;;;;;43.93;28.50;;;0.40;93.30;;;;;;5054236;28;20185;-89
2022/11/22 06:43:28;;;;;;;40.77;26.30;;;0.40;93.40;;;;;;5054997;28;20603;-88
2022/11/22 06:45:58;;;;;;;43.10;26.27;;;0.40;93.40;;;;;;5053461;28;20208;-88
2022/11/22 06:48:24;;;;;;;49.03;27.57;;;0.40;93.40;;;;;;5055175;28;20640;-88
2022/11/22 06:50:50;;;;;;;41.50;27.27;;;0.40;93.40;;;;;;5053917;28;20172;-88
2022/11/22 06:53:16;;;;;;;44.27;26.80;;;0.40;93.40;;;;;;5053880;28;20228;-88
2022/11/22 06:55:42;;;;;;;49.37;27.37;;;0.50;93.40;;;;;;5053762;28;20184;-88
2022/11/22 06:58:08;;;;;;;47.67;28.20;;;0.50;93.40;;;;;;5055093;28;20172;-88
2022/11/22 07:00:33;;;;;;;44.77;26.40;;;0.50;93.40;;;;;;5053898;28;20179;-88
2022/11/22 07:02:59;;;;;;;40.40;25.67;;;0.50;93.40;;;;;;5053723;28;20185;-88
2022/11/22 07:05:24;;;;;;;44.03;27.47;;;0.50;93.40;;;;;;5054625;28;20216;-88
2022/11/22 07:07:50;;;;;;;42.93;26.93;;;0.50;93.40;;;;;;5052945;28;20607;-88
2022/11/22 07:10:15;;;;;;;42.20;26.33;;;0.50;93.40;;;;;;5054217;28;20545;-90
2022/11/22 07:12:41;;;;;;;42.93;25.10;;;0.50;93.40;;;;;;5052691;28;20267;-88
2022/11/22 07:15:06;;;;;;;40.60;25.00;;;0.60;93.40;;;;;;5052549;28;20552;-88
2022/11/22 07:17:32;;;;;;;42.93;25.40;;;0.60;93.40;;;;;;5054002;28;20192;-89
2022/11/22 07:19:57;;;;;;;44.03;28.33;;;0.60;93.40;;;;;;5052901;28;20184;-89
2022/11/22 07:22:23;;;;;;;40.87;26.07;;;0.60;93.40;;;;;;5052950;28;20180;-88
2022/11/22 07:24:48;;;;;;;47.83;28.73;;;0.60;93.40;;;;;;5052417;28;20222;-89
2022/11/22 07:27:14;;;;;;;41.57;26.10;;;0.60;93.40;;;;;;5053822;28;20204;-89
2022/11/22 07:29:40;;;;;;;46.03;29.63;;;0.60;93.40;;;;;;5052635;28;20198;-89
2022/11/22 07:32:05;;;;;;;45.53;28.93;;;0.60;93.40;;;;;;5052497;28;20188;-90
2022/11/22 07:34:31;;;;;;;39.30;24.50;;;0.60;93.40;;;;;;5052325;28;20236;-89
2022/11/22 07:36:56;;;;;;;39.97;25.93;;;0.60;93.40;;;;;;5052404;28;20186;-89
2022/11/22 07:39:22;;;;;;;37.87;24.80;;;0.60;93.30;;;;;;5052572;28;20192;-89
2022/11/22 07:41:47;;;;;;;49.93;28.80;;;0.60;93.30;;;;;;5052822;28;20539;-89
2022/11/22 07:44:13;;;;;;;45.37;27.60;;;0.60;93.30;;;;;;5054200;28;20211;-88
2022/11/22 07:46:38;;;;;;;49.67;29.00;;;0.70;93.40;;;;;;5053768;28;20772;-89
2022/11/22 07:49:04;;;;;;;36.83;22.53;;;0.60;93.30;;;;;;5055139;28;20180;-89
2022/11/22 07:51:30;;;;;;;41.03;23.80;;;0.60;93.30;;;;;;5056396;28;20220;-89
2022/11/22 07:53:56;;;;;;;44.97;27.17;;;0.60;93.30;;;;;;5056598;28;20176;-89
2022/11/22 07:56:22;;;;;;;46.27;28.73;;;0.60;93.30;;;;;;5056125;28;20209;-87
2022/11/22 07:58:47;;;;;;;38.03;23.27;;;0.70;93.30;;;;;;5059069;28;20170;-88
2022/11/22 08:01:15;;;;;;;47.57;30.60;;;0.70;93.30;;;;;;5055839;28;20236;-88
2022/11/22 08:03:41;;;;;;;47.17;28.13;;;0.70;93.30;;;;;;5055982;28;20271;-88
2022/11/22 08:06:09;;;;;;;44.73;27.73;;;0.70;93.30;;;;;;5056531;28;20202;-89
2022/11/22 08:08:35;;;;;;;45.00;29.17;;;0.70;93.30;;;;;;5057554;28;20599;-89
2022/11/22 08:11:00;;;;;;;46.57;29.77;;;0.80;93.20;;;;;;5056542;28;20271;-88
2022/11/22 08:13:26;;;;;;;51.83;29.13;;;0.70;93.20;;;;;;5056099;28;20199;-88
2022/11/22 08:15:52;;;;;;;51.70;32.00;;;0.80;93.20;;;;;;5055881;28;20199;-88
2022/11/22 08:18:18;;;;;;;48.90;28.43;;;0.80;93.20;;;;;;5055824;28;20237;-89
2022/11/22 08:20:43;;;;;;;47.20;25.50;;;0.80;93.20;;;;;;5057007;28;20289;-89
2022/11/22 08:23:09;;;;;;;47.17;28.63;;;0.80;93.20;;;;;;5056155;28;20183;-88
2022/11/22 08:25:34;;;;;;;47.33;28.67;;;0.80;93.10;;;;;;5055817;28;20205;-89
2022/11/22 08:28:00;;;;;;;44.87;28.87;;;0.80;93.10;;;;;;5056336;28;20630;-88
2022/11/22 08:30:25;;;;;;;51.00;30.00;;;0.80;93.10;;;;;;5055642;28;20209;-88
2022/11/22 08:32:54;;;;;;;47.27;27.63;;;0.90;93.10;;;;;;5055581;28;20174;-89
2022/11/22 08:35:20;;;;;;;46.93;29.10;;;0.90;93.10;;;;;;5055445;28;20219;-90
2022/11/22 08:37:45;;;;;;;44.57;27.93;;;0.80;93.10;;;;;;5055696;28;20595;-89
2022/11/22 08:40:11;;;;;;;40.30;27.60;;;0.80;93.10;;;;;;5055694;28;20177;-89
2022/11/22 08:42:37;;;;;;;53.30;32.20;;;0.80;93.10;;;;;;5055750;28;20652;-89
2022/11/22 08:45:04;;;;;;;48.17;30.87;;;0.90;93.10;;;;;;5055401;28;20206;-89
2022/11/22 08:47:29;;;;;;;51.43;30.70;;;0.90;93.10;;;;;;5055172;28;20202;-89
2022/11/22 08:49:55;;;;;;;49.07;30.97;;;0.90;93.10;;;;;;5055797;28;20175;-89
2022/11/22 08:52:20;;;;;;;47.40;29.60;;;0.90;93.10;;;;;;5056146;28;20210;-89
2022/11/22 08:54:46;;;;;;;50.67;29.40;;;0.90;93.10;;;;;;5055286;28;20687;-89
2022/11/22 08:57:11;;;;;;;46.63;30.20;;;0.90;93.10;;;;;;5055240;28;20258;-89
2022/11/22 08:59:37;;;;;;;48.30;29.20;;;0.90;93.10;;;;;;5055126;28;20215;-89
2022/11/22 09:02:03;;;;;;;53.57;31.67;;;1.00;93.10;;;;;;5055580;28;20199;-89
2022/11/22 09:04:29;;;;;;;46.37;30.23;;;1.00;93.10;;;;;;5055194;28;20187;-89
2022/11/22 09:06:55;;;;;;;50.63;30.97;;;1.00;93.10;;;;;;5055254;28;20201;-89
2022/11/22 09:09:21;;;;;;;48.43;28.80;;;1.00;93.10;;;;;;5055341;28;20232;-89
2022/11/22 09:11:46;;;;;;;48.23;29.53;;;1.00;93.10;;;;;;5056576;28;20244;-88
2022/11/22 09:14:12;;;;;;;51.07;30.40;;;1.00;93.10;;;;;;5055860;28;20183;-89
2022/11/22 09:16:37;;;;;;;46.73;29.97;;;1.10;93.10;;;;;;5055091;28;20203;-90
2022/11/22 09:19:03;;;;;;;48.00;30.63;;;1.10;93.10;;;;;;5055002;28;20601;-89
2022/11/22 09:21:29;;;;;;;49.77;31.27;;;1.10;93.10;;;;;;5056075;28;20216;-89
2022/11/22 09:23:54;;;;;;;49.30;30.67;;;1.10;93.20;;;;;;5055904;28;20176;-90
2022/11/22 09:26:23;;;;;;;47.37;30.23;;;1.10;93.20;;;;;;5055852;28;20715;-91
2022/11/22 09:28:48;;;;;;;50.33;31.90;;;1.10;93.20;;;;;;5056008;28;20202;-90
2022/11/22 09:31:17;;;;;;;55.00;32.00;;;1.20;93.10;;;;;;5055912;28;20183;-90
2022/11/22 09:33:46;;;;;;;56.83;30.53;;;1.20;93.10;;;;;;5055559;28;20199;-90
2022/11/22 09:36:17;;;;;;;48.87;29.50;;;1.20;93.20;;;;;;5055411;28;20265;-90
2022/11/22 09:38:43;;;;;;;47.37;30.40;;;1.20;93.10;;;;;;5055462;28;20283;-89
2022/11/22 09:41:15;;;;;;;54.60;32.27;;;1.20;93.10;;;;;;5055449;28;20692;-90
2022/11/22 09:43:40;;;;;;;48.00;30.73;;;1.20;93.20;;;;;;5055139;28;20187;-90
2022/11/22 09:46:34;;;;;;;54.03;32.33;;;1.20;93.10;;;;;;5054906;28;20222;-89
2022/11/22 09:49:19;;;;;;;48.50;30.07;;;1.20;93.20;;;;;;5055993;28;20169;-89
2022/11/22 09:51:54;;;;;;;49.93;29.73;;;1.30;93.20;;;;;;5055701;28;20240;-89
2022/11/22 09:54:33;;;;;;;47.57;31.07;;;1.30;93.20;;;;;;5055728;28;20180;-89
2022/11/22 09:57:02;;;;;;;50.33;31.60;;;1.30;93.20;;;;;;5055991;28;20171;-89
2022/11/22 09:59:32;;;;;;;50.57;30.97;;;1.30;93.20;;;;;;5055310;28;20300;-89
2022/11/22 10:02:02;;;;;;;51.73;31.50;;;1.30;93.20;;;;;;5056318;28;20227;-89
2022/11/22 10:04:34;;;;;;;51.63;32.00;;;1.30;93.30;;;;;;5053556;28;20180;-89
2022/11/22 10:07:26;;;;;;;46.53;29.33;;;1.30;93.30;;;;;;5053380;28;20207;-89
2022/11/22 10:10:03;;;;;;;50.03;31.63;;;1.30;93.30;;;;;;5053222;28;20168;-89
2022/11/22 10:12:44;;;;;;;46.07;30.57;;;1.40;93.30;;;;;;5053806;28;20173;-88
2022/11/22 10:15:21;;;;;;;53.03;30.73;;;1.40;93.30;;;;;;5055282;28;20216;-89
2022/11/22 10:18:00;;;;;;;49.30;32.70;;;1.40;93.40;;;;;;5054077;28;20172;-90
2022/11/22 10:20:39;;;;;;;52.07;32.30;;;1.40;93.40;;;;;;5054851;28;20256;-89
2022/11/22 10:23:19;;;;;;;46.17;29.10;;;1.50;93.40;;;;;;5054167;28;20177;-88
2022/11/22 10:26:01;;;;;;;50.03;30.87;;;1.50;93.50;;;;;;5054459;28;20634;-88
2022/11/22 10:28:38;;;;;;;46.23;30.63;;;1.50;93.50;;;;;;5055401;28;20229;-89
2022/11/22 10:31:29;;;;;;;52.50;31.87;;;1.60;93.50;;;;;;5054524;28;20220;-90
2022/11/22 10:34:09;;;;;;;48.93;30.77;;;1.70;93.50;;;;;;5055140;28;20561;-89
2022/11/22 10:36:55;;;;;;;53.10;30.87;;;1.70;93.50;;;;;;5054333;28;20281;-88
2022/11/22 10:39:30;;;;;;;47.50;29.90;;;1.70;93.60;;;;;;5053858;28;20206;-90
2022/11/22 10:42:04;;;;;;;44.63;30.00;;;1.80;93.60;;;;;;5053911;28;20172;-89
2022/11/22 10:44:47;;;;;;;46.60;29.23;;;1.80;93.60;;;;;;5055688;28;20664;-89
2022/11/22 10:47:36;;;;;;;49.70;29.87;;;1.80;93.60;;;;;;5055176;28;20693;-88
2022/11/22 10:50:22;;;;;;;44.70;28.23;;;1.90;93.60;;;;;;5054724;28;20725;-89
2022/11/22 10:53:06;;;;;;;47.03;29.77;;;1.90;93.60;;;;;;5054210;28;20166;-88
2022/11/22 10:55:39;;;;;;;47.43;29.60;;;1.90;93.60;;;;;;5054438;28;20195;-89
2022/11/22 10:58:31;;;;;;;50.37;30.20;;;1.90;93.60;;;;;;5053789;28;20194;-90
2022/11/22 11:01:18;;;;;;;49.33;30.30;;;2.00;93.60;;;;;;5053394;28;20261;-89
2022/11/22 11:03:47;;;;;;;51.50;29.77;;;2.10;93.60;;;;;;5053494;28;20172;-89
2022/11/22 11:06:20;;;;;;;46.90;29.20;;;2.20;93.60;;;;;;5054299;28;20239;-89
2022/11/22 11:08:51;;;;;;;52.80;29.33;;;2.20;93.60;;;;;;5053424;28;20179;-88
2022/11/22 11:11:17;;;;;;;46.07;29.73;;;2.20;93.60;;;;;;5053902;28;20626;-89
2022/11/22 11:13:57;;;;;;;45.13;27.73;;;2.30;93.60;;;;;;5054067;28;20172;-89
2022/11/22 11:16:29;;;;;;;45.90;29.63;;;2.30;93.60;;;;;;5053657;28;20205;-91
2022/11/22 11:19:17;;;;;;;47.77;29.03;;;2.30;93.50;;;;;;5055537;28;20176;-89
2022/11/22 11:21:43;;;;;;;43.57;29.07;;;2.30;93.50;;;;;;5054323;28;20568;-90
2022/11/22 11:24:16;;;;;;;43.43;27.93;;;2.30;93.40;;;;;;5053347;28;20205;-90
2022/11/22 11:26:49;;;;;;;43.17;29.03;;;2.30;93.40;;;;;;5053977;28;20231;-90
2022/11/22 11:29:18;;;;;;;41.87;28.23;;;2.30;93.40;;;;;;5054188;28;20162;-90
2022/11/22 11:31:48;;;;;;;50.47;29.13;;;2.30;93.30;;;;;;5053819;28;20172;-90
2022/11/22 11:34:19;;;;;;;44.40;28.07;;;2.30;93.30;;;;;;5053585;28;20188;-89
2022/11/22 11:36:45;;;;;;;45.00;27.03;;;2.30;93.30;;;;;;5053428;28;20202;-90
2022/11/22 11:39:32;;;;;;;43.73;26.70;;;2.30;93.30;;;;;;5053735;28;20183;-90
2022/11/22 11:41:58;;;;;;;39.63;26.57;;;2.40;93.30;;;;;;5053621;28;20160;-90
2022/11/22 11:44:27;;;;;;;41.40;27.60;;;2.40;93.20;;;;;;5053538;28;20210;-90
2022/11/22 11:46:53;;;;;;;40.93;26.00;;;2.50;93.20;;;;;;5053493;28;20700;-90
2022/11/22 11:49:24;;;;;;;46.03;26.97;;;2.50;93.20;;;;;;5053626;28;20190;-90
2022/11/22 11:52:07;;;;;;;41.87;27.17;;;2.60;93.20;;;;;;5052869;28;20164;-92
2022/11/22 11:54:40;;;;;;;39.83;26.47;;;2.60;93.20;;;;;;5052851;28;20182;-91
2022/11/22 11:57:14;;;;;;;44.77;27.00;;;2.70;93.20;;;;;;5053064;28;20254;-91
2022/11/22 11:59:39;;;;;;;41.73;26.63;;;2.80;93.20;;;;;;5053154;28;20544;-91
2022/11/22 12:02:22;;;;;;;39.03;27.87;;;2.80;93.20;;;;;;5053834;28;20183;-89
2022/11/22 12:04:58;;;;;;;40.83;26.27;;;2.80;93.20;;;;;;5053375;28;20202;-89
2022/11/22 12:07:25;;;;;;;46.77;27.77;;;2.80;93.20;;;;;;5053143;28;20290;-89
2022/11/22 12:09:52;;;;;;;42.53;27.37;;;2.90;93.20;;;;;;5053185;28;20180;-88
2022/11/22 12:12:42;;;;;;;45.53;27.03;;;2.90;93.10;;;;;;5054325;28;20544;-89
2022/11/22 12:15:41;;;;;;;46.40;26.93;;;2.90;93.10;;;;;;5053720;28;20728;-89
2022/11/22 12:18:29;;;;;;;41.60;27.40;;;2.90;93.10;;;;;;5053317;28;20180;-89
2022/11/22 12:21:21;;;;;;;42.63;27.33;;;2.90;93.00;;;;;;5053135;28;20177;-89
2022/11/22 12:24:13;;;;;;;44.63;26.80;;;2.90;93.00;;;;;;5053646;28;20255;-89
2022/11/22 12:26:39;;;;;;;41.97;26.67;;;2.90;93.00;;;;;;5053456;28;20211;-90
2022/11/22 12:29:05;;;;;;;37.80;25.20;;;3.00;93.00;;;;;;5054384;28;20169;-90
2022/11/22 12:31:52;;;;;;;43.20;27.93;;;2.90;92.90;;;;;;5054172;28;20634;-89
2022/11/22 12:34:32;;;;;;;41.77;27.57;;;3.00;92.90;;;;;;5054166;28;20317;-89
2022/11/22 12:37:05;;;;;;;39.77;24.90;;;2.90;92.80;;;;;;5057249;28;20168;-87
2022/11/22 12:39:35;;;;;;;41.50;25.63;;;3.00;92.80;;;;;;5057208;28;20164;-89
2022/11/22 12:42:12;;;;;;;48.37;29.67;;;3.00;92.80;;;;;;5056283;28;20183;-89
2022/11/22 12:44:57;;;;;;;41.67;27.57;;;3.00;92.80;;;;;;5057552;28;20185;-90
2022/11/22 12:47:36;;;;;;;44.33;27.27;;;3.00;92.70;;;;;;5056318;28;20230;-91
2022/11/22 12:50:25;;;;;;;43.03;27.10;;;3.00;92.70;;;;;;5056289;28;20160;-90
2022/11/22 12:52:57;;;;;;;39.00;26.20;;;3.00;92.70;;;;;;5056912;28;20207;-91